sensor_id;sensor_type;location;lat;lon;timestamp;P1;durP1;ratioP1;P2;durP2;ratioP2
30233;SDS011;17046;52.074;4.748;2023-01-23T00:00:54;21.20;;;10.33;;
30233;SDS011;17046;52.074;4.748;2023-01-23T00:03:20;20.20;;;10.23;;
30233;SDS011;17046;52.074;4.748;2023-01-23T00:05:54;18.47;;;10.43;;
30233;SDS011;17046;52.074;4.748;2023-01-23T00:08:31;20.33;;;10.23;;
30233;SDS011;17046;52.074;4.748;2023-01-23T00:10:58;20.93;;;10.27;;
30233;SDS011;17046;52.074;4.748;2023-01-23T00:13:23;17.70;;;9.83;;
30233;SDS011;17046;52.074;4.748;2023-01-23T00:15:49;19.90;;;10.57;;
30233;SDS011;17046;52.074;4.748;2023-01-23T00:18:15;19.30;;;10.70;;
30233;SDS011;17046;52.074;4.748;2023-01-23T00:20:41;20.23;;;9.83;;
30233;SDS011;17046;52.074;4.748;2023-01-23T00:23:07;20.17;;;10.83;;
30233;SDS011;17046;52.074;4.748;2023-01-23T00:25:34;21.30;;;10.33;;
30233;SDS011;17046;52.074;4.748;2023-01-23T00:28:01;17.47;;;9.67;;
30233;SDS011;17046;52.074;4.748;2023-01-23T00:30:27;18.53;;;10.70;;
30233;SDS011;17046;52.074;4.748;2023-01-23T00:32:52;25.73;;;10.50;;
30233;SDS011;17046;52.074;4.748;2023-01-23T00:35:18;19.77;;;10.33;;
30233;SDS011;17046;52.074;4.748;2023-01-23T00:37:44;18.63;;;10.17;;
30233;SDS011;17046;52.074;4.748;2023-01-23T00:40:10;22.43;;;11.03;;
30233;SDS011;17046;52.074;4.748;2023-01-23T00:42:35;18.47;;;10.77;;
30233;SDS011;17046;52.074;4.748;2023-01-23T00:45:01;16.50;;;10.03;;
30233;SDS011;17046;52.074;4.748;2023-01-23T00:47:27;21.93;;;11.00;;
30233;SDS011;17046;52.074;4.748;2023-01-23T00:49:52;23.60;;;11.90;;
30233;SDS011;17046;52.074;4.748;2023-01-23T00:52:19;19.97;;;10.13;;
30233;SDS011;17046;52.074;4.748;2023-01-23T00:54:44;18.33;;;10.70;;
30233;SDS011;17046;52.074;4.748;2023-01-23T00:57:10;22.37;;;10.60;;
30233;SDS011;17046;52.074;4.748;2023-01-23T00:59:35;23.30;;;10.50;;
30233;SDS011;17046;52.074;4.748;2023-01-23T01:02:01;20.67;;;11.10;;
30233;SDS011;17046;52.074;4.748;2023-01-23T01:04:27;23.87;;;10.93;;
30233;SDS011;17046;52.074;4.748;2023-01-23T01:06:52;24.63;;;11.37;;
30233;SDS011;17046;52.074;4.748;2023-01-23T01:09:18;21.87;;;11.10;;
30233;SDS011;17046;52.074;4.748;2023-01-23T01:11:44;23.17;;;11.57;;
30233;SDS011;17046;52.074;4.748;2023-01-23T01:14:09;20.23;;;11.30;;
30233;SDS011;17046;52.074;4.748;2023-01-23T01:16:35;20.67;;;11.03;;
30233;SDS011;17046;52.074;4.748;2023-01-23T01:19:01;21.03;;;10.93;;
30233;SDS011;17046;52.074;4.748;2023-01-23T01:21:27;21.33;;;10.37;;
30233;SDS011;17046;52.074;4.748;2023-01-23T01:23:54;21.33;;;11.60;;
30233;SDS011;17046;52.074;4.748;2023-01-23T01:26:19;17.93;;;10.70;;
30233;SDS011;17046;52.074;4.748;2023-01-23T01:28:47;20.50;;;10.67;;
30233;SDS011;17046;52.074;4.748;2023-01-23T01:31:14;23.47;;;10.87;;
30233;SDS011;17046;52.074;4.748;2023-01-23T01:33:40;22.97;;;11.77;;
30233;SDS011;17046;52.074;4.748;2023-01-23T01:36:11;20.10;;;10.77;;
30233;SDS011;17046;52.074;4.748;2023-01-23T01:38:38;21.50;;;11.57;;
30233;SDS011;17046;52.074;4.748;2023-01-23T01:41:04;19.50;;;11.53;;
30233;SDS011;17046;52.074;4.748;2023-01-23T01:43:30;17.23;;;11.03;;
30233;SDS011;17046;52.074;4.748;2023-01-23T01:46:41;21.67;;;11.43;;
30233;SDS011;17046;52.074;4.748;2023-01-23T01:57:07;20.63;;;11.70;;
30233;SDS011;17046;52.074;4.748;2023-01-23T01:59:42;23.27;;;11.67;;
30233;SDS011;17046;52.074;4.748;2023-01-23T02:02:18;24.60;;;11.80;;
30233;SDS011;17046;52.074;4.748;2023-01-23T02:04:52;27.00;;;11.63;;
30233;SDS011;17046;52.074;4.748;2023-01-23T02:07:24;24.40;;;11.43;;
30233;SDS011;17046;52.074;4.748;2023-01-23T02:09:53;26.83;;;12.73;;
30233;SDS011;17046;52.074;4.748;2023-01-23T02:12:20;23.43;;;11.83;;
30233;SDS011;17046;52.074;4.748;2023-01-23T02:14:45;27.10;;;12.73;;
30233;SDS011;17046;52.074;4.748;2023-01-23T02:17:11;25.00;;;13.63;;
30233;SDS011;17046;52.074;4.748;2023-01-23T02:19:46;25.77;;;12.07;;
30233;SDS011;17046;52.074;4.748;2023-01-23T02:25:22;24.20;;;12.00;;
30233;SDS011;17046;52.074;4.748;2023-01-23T02:28:01;24.27;;;12.43;;
30233;SDS011;17046;52.074;4.748;2023-01-23T02:30:27;21.80;;;12.37;;
30233;SDS011;17046;52.074;4.748;2023-01-23T02:32:53;24.20;;;12.90;;
30233;SDS011;17046;52.074;4.748;2023-01-23T02:35:22;28.33;;;12.40;;
30233;SDS011;17046;52.074;4.748;2023-01-23T02:37:53;26.60;;;13.07;;
30233;SDS011;17046;52.074;4.748;2023-01-23T02:40:32;27.53;;;13.60;;
30233;SDS011;17046;52.074;4.748;2023-01-23T02:43:00;29.80;;;12.90;;
30233;SDS011;17046;52.074;4.748;2023-01-23T02:45:28;29.43;;;13.23;;
30233;SDS011;17046;52.074;4.748;2023-01-23T02:47:54;25.03;;;12.70;;
30233;SDS011;17046;52.074;4.748;2023-01-23T02:50:20;22.80;;;11.40;;
30233;SDS011;17046;52.074;4.748;2023-01-23T02:52:45;23.33;;;12.07;;
30233;SDS011;17046;52.074;4.748;2023-01-23T02:55:13;25.47;;;12.77;;
30233;SDS011;17046;52.074;4.748;2023-01-23T02:57:39;29.83;;;13.30;;
30233;SDS011;17046;52.074;4.748;2023-01-23T03:00:04;25.40;;;12.33;;
30233;SDS011;17046;52.074;4.748;2023-01-23T03:02:51;22.93;;;12.53;;
30233;SDS011;17046;52.074;4.748;2023-01-23T03:05:18;22.23;;;11.23;;
30233;SDS011;17046;52.074;4.748;2023-01-23T03:07:44;24.37;;;12.07;;
30233;SDS011;17046;52.074;4.748;2023-01-23T03:10:10;24.70;;;12.63;;
30233;SDS011;17046;52.074;4.748;2023-01-23T03:12:36;24.17;;;12.27;;
30233;SDS011;17046;52.074;4.748;2023-01-23T03:15:07;23.60;;;11.43;;
30233;SDS011;17046;52.074;4.748;2023-01-23T03:17:33;24.37;;;12.63;;
30233;SDS011;17046;52.074;4.748;2023-01-23T03:20:00;27.43;;;12.27;;
30233;SDS011;17046;52.074;4.748;2023-01-23T03:22:27;25.57;;;12.70;;
30233;SDS011;17046;52.074;4.748;2023-01-23T03:24:52;24.27;;;11.60;;
30233;SDS011;17046;52.074;4.748;2023-01-23T03:27:18;23.90;;;12.20;;
30233;SDS011;17046;52.074;4.748;2023-01-23T03:29:43;22.10;;;12.23;;
30233;SDS011;17046;52.074;4.748;2023-01-23T03:32:27;23.83;;;12.77;;
30233;SDS011;17046;52.074;4.748;2023-01-23T03:34:54;27.17;;;13.17;;
30233;SDS011;17046;52.074;4.748;2023-01-23T03:37:20;24.77;;;13.03;;
30233;SDS011;17046;52.074;4.748;2023-01-23T03:39:46;26.00;;;12.67;;
30233;SDS011;17046;52.074;4.748;2023-01-23T03:42:32;25.00;;;12.53;;
30233;SDS011;17046;52.074;4.748;2023-01-23T03:44:58;24.33;;;12.53;;
30233;SDS011;17046;52.074;4.748;2023-01-23T03:47:24;28.77;;;12.67;;
30233;SDS011;17046;52.074;4.748;2023-01-23T03:49:50;21.53;;;12.90;;
30233;SDS011;17046;52.074;4.748;2023-01-23T03:52:16;25.43;;;13.20;;
30233;SDS011;17046;52.074;4.748;2023-01-23T03:54:42;28.70;;;12.60;;
30233;SDS011;17046;52.074;4.748;2023-01-23T03:57:07;27.87;;;13.03;;
30233;SDS011;17046;52.074;4.748;2023-01-23T03:59:33;29.33;;;12.90;;
30233;SDS011;17046;52.074;4.748;2023-01-23T04:01:59;25.17;;;13.27;;
30233;SDS011;17046;52.074;4.748;2023-01-23T04:04:25;25.63;;;12.63;;
30233;SDS011;17046;52.074;4.748;2023-01-23T04:06:50;27.77;;;12.77;;
30233;SDS011;17046;52.074;4.748;2023-01-23T04:09:16;31.30;;;12.97;;
30233;SDS011;17046;52.074;4.748;2023-01-23T04:11:42;25.90;;;13.00;;
30233;SDS011;17046;52.074;4.748;2023-01-23T04:14:07;27.03;;;12.70;;
30233;SDS011;17046;52.074;4.748;2023-01-23T04:16:33;24.27;;;12.90;;
30233;SDS011;17046;52.074;4.748;2023-01-23T04:18:58;28.10;;;13.93;;
30233;SDS011;17046;52.074;4.748;2023-01-23T04:21:24;31.67;;;14.70;;
30233;SDS011;17046;52.074;4.748;2023-01-23T04:23:49;32.23;;;15.13;;
30233;SDS011;17046;52.074;4.748;2023-01-23T04:26:15;33.77;;;13.73;;
30233;SDS011;17046;52.074;4.748;2023-01-23T04:28:40;28.77;;;14.03;;
30233;SDS011;17046;52.074;4.748;2023-01-23T04:31:06;29.27;;;13.77;;
30233;SDS011;17046;52.074;4.748;2023-01-23T04:33:33;30.23;;;13.77;;
30233;SDS011;17046;52.074;4.748;2023-01-23T04:36:00;27.63;;;13.07;;
30233;SDS011;17046;52.074;4.748;2023-01-23T04:38:28;29.77;;;13.63;;
30233;SDS011;17046;52.074;4.748;2023-01-23T04:40:55;34.20;;;15.07;;
30233;SDS011;17046;52.074;4.748;2023-01-23T04:43:20;32.03;;;14.43;;
30233;SDS011;17046;52.074;4.748;2023-01-23T04:45:48;31.27;;;14.43;;
30233;SDS011;17046;52.074;4.748;2023-01-23T04:48:15;28.90;;;13.53;;
30233;SDS011;17046;52.074;4.748;2023-01-23T04:50:40;27.73;;;12.77;;
30233;SDS011;17046;52.074;4.748;2023-01-23T04:53:06;26.43;;;13.73;;
30233;SDS011;17046;52.074;4.748;2023-01-23T04:55:32;25.83;;;14.17;;
30233;SDS011;17046;52.074;4.748;2023-01-23T04:57:58;25.33;;;13.77;;
30233;SDS011;17046;52.074;4.748;2023-01-23T05:00:23;27.60;;;13.27;;
30233;SDS011;17046;52.074;4.748;2023-01-23T05:02:49;28.20;;;12.87;;
30233;SDS011;17046;52.074;4.748;2023-01-23T05:05:15;29.90;;;14.83;;
30233;SDS011;17046;52.074;4.748;2023-01-23T05:07:47;31.77;;;14.40;;
30233;SDS011;17046;52.074;4.748;2023-01-23T05:10:14;31.10;;;14.83;;
30233;SDS011;17046;52.074;4.748;2023-01-23T05:12:39;30.67;;;14.00;;
30233;SDS011;17046;52.074;4.748;2023-01-23T05:15:06;28.77;;;13.30;;
30233;SDS011;17046;52.074;4.748;2023-01-23T05:17:32;30.77;;;14.50;;
30233;SDS011;17046;52.074;4.748;2023-01-23T05:19:57;29.97;;;14.43;;
30233;SDS011;17046;52.074;4.748;2023-01-23T05:22:23;26.07;;;13.90;;
30233;SDS011;17046;52.074;4.748;2023-01-23T05:24:48;30.13;;;14.07;;
30233;SDS011;17046;52.074;4.748;2023-01-23T05:27:14;30.70;;;14.83;;
30233;SDS011;17046;52.074;4.748;2023-01-23T05:29:39;29.17;;;13.40;;
30233;SDS011;17046;52.074;4.748;2023-01-23T05:32:05;31.47;;;14.30;;
30233;SDS011;17046;52.074;4.748;2023-01-23T05:34:31;29.60;;;14.37;;
30233;SDS011;17046;52.074;4.748;2023-01-23T05:36:57;29.93;;;14.53;;
30233;SDS011;17046;52.074;4.748;2023-01-23T05:39:22;30.80;;;14.93;;
30233;SDS011;17046;52.074;4.748;2023-01-23T05:41:48;26.97;;;12.93;;
30233;SDS011;17046;52.074;4.748;2023-01-23T05:44:13;31.47;;;15.00;;
30233;SDS011;17046;52.074;4.748;2023-01-23T05:46:39;24.43;;;13.00;;
30233;SDS011;17046;52.074;4.748;2023-01-23T05:49:04;31.53;;;14.20;;
30233;SDS011;17046;52.074;4.748;2023-01-23T05:51:30;34.30;;;13.80;;
30233;SDS011;17046;52.074;4.748;2023-01-23T05:53:57;31.47;;;14.00;;
30233;SDS011;17046;52.074;4.748;2023-01-23T05:56:23;30.97;;;14.83;;
30233;SDS011;17046;52.074;4.748;2023-01-23T05:58:49;25.17;;;13.70;;
30233;SDS011;17046;52.074;4.748;2023-01-23T06:01:15;33.90;;;15.23;;
30233;SDS011;17046;52.074;4.748;2023-01-23T06:03:41;34.50;;;15.67;;
30233;SDS011;17046;52.074;4.748;2023-01-23T06:06:06;35.00;;;14.83;;
30233;SDS011;17046;52.074;4.748;2023-01-23T06:08:32;36.30;;;16.07;;
30233;SDS011;17046;52.074;4.748;2023-01-23T06:10:57;31.97;;;15.67;;
30233;SDS011;17046;52.074;4.748;2023-01-23T06:13:27;31.67;;;15.87;;
30233;SDS011;17046;52.074;4.748;2023-01-23T06:15:53;32.77;;;16.57;;
30233;SDS011;17046;52.074;4.748;2023-01-23T06:18:19;33.60;;;16.77;;
30233;SDS011;17046;52.074;4.748;2023-01-23T06:20:45;32.77;;;15.37;;
30233;SDS011;17046;52.074;4.748;2023-01-23T06:23:11;32.03;;;13.90;;
30233;SDS011;17046;52.074;4.748;2023-01-23T06:25:37;30.67;;;14.50;;
30233;SDS011;17046;52.074;4.748;2023-01-23T06:28:03;31.20;;;15.43;;
30233;SDS011;17046;52.074;4.748;2023-01-23T06:30:29;29.87;;;14.80;;
30233;SDS011;17046;52.074;4.748;2023-01-23T06:32:54;25.40;;;14.03;;
30233;SDS011;17046;52.074;4.748;2023-01-23T06:35:20;28.97;;;14.67;;
30233;SDS011;17046;52.074;4.748;2023-01-23T06:37:46;28.73;;;14.23;;
30233;SDS011;17046;52.074;4.748;2023-01-23T06:40:12;30.63;;;14.73;;
30233;SDS011;17046;52.074;4.748;2023-01-23T06:42:38;34.90;;;17.50;;
30233;SDS011;17046;52.074;4.748;2023-01-23T06:45:04;32.33;;;17.10;;
30233;SDS011;17046;52.074;4.748;2023-01-23T06:47:31;33.30;;;16.07;;
30233;SDS011;17046;52.074;4.748;2023-01-23T06:49:56;29.60;;;15.97;;
30233;SDS011;17046;52.074;4.748;2023-01-23T06:52:22;36.50;;;17.20;;
30233;SDS011;17046;52.074;4.748;2023-01-23T06:54:48;31.60;;;15.97;;
30233;SDS011;17046;52.074;4.748;2023-01-23T06:57:13;32.07;;;16.37;;
30233;SDS011;17046;52.074;4.748;2023-01-23T06:59:39;33.03;;;16.13;;
30233;SDS011;17046;52.074;4.748;2023-01-23T07:02:05;35.93;;;17.00;;
30233;SDS011;17046;52.074;4.748;2023-01-23T07:04:31;35.20;;;18.20;;
30233;SDS011;17046;52.074;4.748;2023-01-23T07:06:57;35.93;;;18.30;;
30233;SDS011;17046;52.074;4.748;2023-01-23T07:09:22;35.20;;;17.53;;
30233;SDS011;17046;52.074;4.748;2023-01-23T07:11:48;41.87;;;20.80;;
30233;SDS011;17046;52.074;4.748;2023-01-23T07:14:13;32.67;;;16.67;;
30233;SDS011;17046;52.074;4.748;2023-01-23T07:16:39;34.10;;;17.80;;
30233;SDS011;17046;52.074;4.748;2023-01-23T07:19:05;35.33;;;17.27;;
30233;SDS011;17046;52.074;4.748;2023-01-23T07:21:30;32.67;;;16.20;;
30233;SDS011;17046;52.074;4.748;2023-01-23T07:23:56;33.87;;;18.53;;
30233;SDS011;17046;52.074;4.748;2023-01-23T07:26:22;34.23;;;16.17;;
30233;SDS011;17046;52.074;4.748;2023-01-23T07:28:48;35.13;;;16.20;;
30233;SDS011;17046;52.074;4.748;2023-01-23T07:31:14;35.90;;;17.63;;
30233;SDS011;17046;52.074;4.748;2023-01-23T07:33:40;34.13;;;16.17;;
30233;SDS011;17046;52.074;4.748;2023-01-23T07:36:06;34.33;;;16.30;;
30233;SDS011;17046;52.074;4.748;2023-01-23T07:38:32;34.77;;;16.73;;
30233;SDS011;17046;52.074;4.748;2023-01-23T07:40:58;36.57;;;18.27;;
30233;SDS011;17046;52.074;4.748;2023-01-23T07:43:24;34.77;;;18.47;;
30233;SDS011;17046;52.074;4.748;2023-01-23T07:45:50;34.73;;;17.83;;
30233;SDS011;17046;52.074;4.748;2023-01-23T07:48:16;32.63;;;17.17;;
30233;SDS011;17046;52.074;4.748;2023-01-23T07:50:41;35.53;;;17.77;;
30233;SDS011;17046;52.074;4.748;2023-01-23T07:53:07;38.30;;;18.47;;
30233;SDS011;17046;52.074;4.748;2023-01-23T07:55:33;39.97;;;17.33;;
30233;SDS011;17046;52.074;4.748;2023-01-23T07:58:01;31.90;;;16.70;;
30233;SDS011;17046;52.074;4.748;2023-01-23T08:00:27;35.37;;;17.33;;
30233;SDS011;17046;52.074;4.748;2023-01-23T08:02:53;44.57;;;23.20;;
30233;SDS011;17046;52.074;4.748;2023-01-23T08:05:19;30.67;;;16.37;;
30233;SDS011;17046;52.074;4.748;2023-01-23T08:07:44;34.50;;;17.20;;
30233;SDS011;17046;52.074;4.748;2023-01-23T08:10:10;34.10;;;18.10;;
30233;SDS011;17046;52.074;4.748;2023-01-23T08:12:36;33.33;;;15.37;;
30233;SDS011;17046;52.074;4.748;2023-01-23T08:15:01;35.57;;;16.50;;
30233;SDS011;17046;52.074;4.748;2023-01-23T08:17:27;37.23;;;16.53;;
30233;SDS011;17046;52.074;4.748;2023-01-23T08:19:53;39.37;;;19.17;;
30233;SDS011;17046;52.074;4.748;2023-01-23T08:22:18;40.63;;;19.77;;
30233;SDS011;17046;52.074;4.748;2023-01-23T08:24:44;31.20;;;17.03;;
30233;SDS011;17046;52.074;4.748;2023-01-23T08:27:10;34.80;;;16.73;;
30233;SDS011;17046;52.074;4.748;2023-01-23T08:29:35;32.93;;;17.27;;
30233;SDS011;17046;52.074;4.748;2023-01-23T08:32:00;40.80;;;18.43;;
30233;SDS011;17046;52.074;4.748;2023-01-23T08:34:26;32.27;;;17.47;;
30233;SDS011;17046;52.074;4.748;2023-01-23T08:36:52;35.03;;;17.33;;
30233;SDS011;17046;52.074;4.748;2023-01-23T08:39:17;36.30;;;19.47;;
30233;SDS011;17046;52.074;4.748;2023-01-23T08:41:44;34.23;;;15.07;;
30233;SDS011;17046;52.074;4.748;2023-01-23T08:44:09;33.40;;;16.43;;
30233;SDS011;17046;52.074;4.748;2023-01-23T08:46:35;36.23;;;16.30;;
30233;SDS011;17046;52.074;4.748;2023-01-23T08:49:01;31.47;;;15.13;;
30233;SDS011;17046;52.074;4.748;2023-01-23T08:51:28;33.37;;;17.00;;
30233;SDS011;17046;52.074;4.748;2023-01-23T08:53:54;31.77;;;15.90;;
30233;SDS011;17046;52.074;4.748;2023-01-23T08:56:20;32.27;;;16.23;;
30233;SDS011;17046;52.074;4.748;2023-01-23T08:58:47;34.20;;;15.83;;
30233;SDS011;17046;52.074;4.748;2023-01-23T09:01:17;34.40;;;15.80;;
30233;SDS011;17046;52.074;4.748;2023-01-23T09:03:45;32.73;;;16.40;;
30233;SDS011;17046;52.074;4.748;2023-01-23T09:06:11;32.57;;;16.23;;
30233;SDS011;17046;52.074;4.748;2023-01-23T09:08:38;31.17;;;15.57;;
30233;SDS011;17046;52.074;4.748;2023-01-23T09:11:05;34.57;;;16.53;;
30233;SDS011;17046;52.074;4.748;2023-01-23T09:13:31;35.33;;;16.30;;
30233;SDS011;17046;52.074;4.748;2023-01-23T09:15:58;32.87;;;16.70;;
30233;SDS011;17046;52.074;4.748;2023-01-23T09:18:24;32.33;;;17.17;;
30233;SDS011;17046;52.074;4.748;2023-01-23T09:20:50;36.67;;;16.60;;
30233;SDS011;17046;52.074;4.748;2023-01-23T09:23:17;36.10;;;16.77;;
30233;SDS011;17046;52.074;4.748;2023-01-23T09:25:43;31.87;;;16.97;;
30233;SDS011;17046;52.074;4.748;2023-01-23T09:28:08;30.03;;;16.60;;
30233;SDS011;17046;52.074;4.748;2023-01-23T09:30:34;34.07;;;15.87;;
30233;SDS011;17046;52.074;4.748;2023-01-23T09:33:00;30.00;;;16.10;;
30233;SDS011;17046;52.074;4.748;2023-01-23T09:35:26;33.30;;;17.57;;
30233;SDS011;17046;52.074;4.748;2023-01-23T09:37:52;32.57;;;15.77;;
30233;SDS011;17046;52.074;4.748;2023-01-23T09:40:24;29.60;;;16.13;;
30233;SDS011;17046;52.074;4.748;2023-01-23T09:42:53;30.33;;;16.20;;
30233;SDS011;17046;52.074;4.748;2023-01-23T09:45:23;29.93;;;16.33;;
30233;SDS011;17046;52.074;4.748;2023-01-23T09:50:54;30.93;;;16.83;;
30233;SDS011;17046;52.074;4.748;2023-01-23T09:53:25;30.53;;;15.13;;
30233;SDS011;17046;52.074;4.748;2023-01-23T09:58:29;33.03;;;16.63;;
30233;SDS011;17046;52.074;4.748;2023-01-23T10:01:00;32.27;;;14.97;;
30233;SDS011;17046;52.074;4.748;2023-01-23T10:03:29;29.67;;;16.37;;
30233;SDS011;17046;52.074;4.748;2023-01-23T10:11:57;32.23;;;16.90;;
30233;SDS011;17046;52.074;4.748;2023-01-23T10:14:38;30.67;;;16.67;;
30233;SDS011;17046;52.074;4.748;2023-01-23T10:17:06;32.00;;;16.33;;
30233;SDS011;17046;52.074;4.748;2023-01-23T10:25:40;32.63;;;17.00;;
30233;SDS011;17046;52.074;4.748;2023-01-23T10:28:15;26.47;;;13.83;;
30233;SDS011;17046;52.074;4.748;2023-01-23T10:30:48;31.87;;;16.63;;
30233;SDS011;17046;52.074;4.748;2023-01-23T10:33:18;29.10;;;16.63;;
30233;SDS011;17046;52.074;4.748;2023-01-23T10:35:48;27.20;;;14.67;;
30233;SDS011;17046;52.074;4.748;2023-01-23T10:41:10;27.50;;;15.27;;
30233;SDS011;17046;52.074;4.748;2023-01-23T10:43:37;26.03;;;13.67;;
30233;SDS011;17046;52.074;4.748;2023-01-23T10:48:57;26.33;;;15.17;;
30233;SDS011;17046;52.074;4.748;2023-01-23T10:54:02;25.77;;;13.97;;
30233;SDS011;17046;52.074;4.748;2023-01-23T10:56:30;27.03;;;15.00;;
30233;SDS011;17046;52.074;4.748;2023-01-23T10:58:57;26.47;;;14.67;;
30233;SDS011;17046;52.074;4.748;2023-01-23T11:01:26;30.83;;;15.83;;
30233;SDS011;17046;52.074;4.748;2023-01-23T11:03:55;25.90;;;15.13;;
30233;SDS011;17046;52.074;4.748;2023-01-23T11:06:21;25.93;;;14.03;;
30233;SDS011;17046;52.074;4.748;2023-01-23T11:08:56;30.27;;;15.87;;
30233;SDS011;17046;52.074;4.748;2023-01-23T11:11:30;26.97;;;14.50;;
30233;SDS011;17046;52.074;4.748;2023-01-23T11:16:40;27.83;;;15.57;;
30233;SDS011;17046;52.074;4.748;2023-01-23T11:21:37;29.77;;;15.53;;
30233;SDS011;17046;52.074;4.748;2023-01-23T11:24:19;29.17;;;15.93;;
30233;SDS011;17046;52.074;4.748;2023-01-23T11:27:03;28.40;;;15.33;;
30233;SDS011;17046;52.074;4.748;2023-01-23T11:32:30;23.57;;;14.67;;
30233;SDS011;17046;52.074;4.748;2023-01-23T11:35:09;28.70;;;14.67;;
30233;SDS011;17046;52.074;4.748;2023-01-23T11:37:38;24.63;;;14.20;;
30233;SDS011;17046;52.074;4.748;2023-01-23T11:42:38;27.20;;;14.27;;
30233;SDS011;17046;52.074;4.748;2023-01-23T11:45:22;24.50;;;14.27;;
30233;SDS011;17046;52.074;4.748;2023-01-23T11:48:06;26.57;;;15.13;;
30233;SDS011;17046;52.074;4.748;2023-01-23T11:50:55;24.97;;;13.67;;
30233;SDS011;17046;52.074;4.748;2023-01-23T11:56:50;25.90;;;14.47;;
30233;SDS011;17046;52.074;4.748;2023-01-23T11:59:33;26.67;;;14.23;;
30233;SDS011;17046;52.074;4.748;2023-01-23T12:05:22;24.80;;;14.27;;
30233;SDS011;17046;52.074;4.748;2023-01-23T12:14:19;23.67;;;13.10;;
30233;SDS011;17046;52.074;4.748;2023-01-23T12:43:35;21.27;;;11.43;;
30233;SDS011;17046;52.074;4.748;2023-01-23T12:46:13;18.87;;;11.07;;
30233;SDS011;17046;52.074;4.748;2023-01-23T12:51:19;19.87;;;10.33;;
30233;SDS011;17046;52.074;4.748;2023-01-23T12:53:48;19.67;;;9.90;;
30233;SDS011;17046;52.074;4.748;2023-01-23T12:56:24;18.90;;;11.07;;
30233;SDS011;17046;52.074;4.748;2023-01-23T12:59:05;16.23;;;10.57;;
30233;SDS011;17046;52.074;4.748;2023-01-23T13:02:03;18.23;;;11.23;;
30233;SDS011;17046;52.074;4.748;2023-01-23T13:07:37;18.07;;;11.10;;
30233;SDS011;17046;52.074;4.748;2023-01-23T13:10:30;19.00;;;10.60;;
30233;SDS011;17046;52.074;4.748;2023-01-23T13:13:23;19.23;;;11.00;;
30233;SDS011;17046;52.074;4.748;2023-01-23T13:16:00;18.00;;;10.50;;
30233;SDS011;17046;52.074;4.748;2023-01-23T13:18:37;20.77;;;10.73;;
30233;SDS011;17046;52.074;4.748;2023-01-23T13:21:22;16.17;;;9.77;;
30233;SDS011;17046;52.074;4.748;2023-01-23T13:24:23;16.23;;;9.50;;
30233;SDS011;17046;52.074;4.748;2023-01-23T13:32:54;14.97;;;9.53;;
30233;SDS011;17046;52.074;4.748;2023-01-23T13:46:29;15.07;;;7.83;;
30233;SDS011;17046;52.074;4.748;2023-01-23T13:49:01;14.70;;;8.73;;
30233;SDS011;17046;52.074;4.748;2023-01-23T13:52:12;14.73;;;8.10;;
30233;SDS011;17046;52.074;4.748;2023-01-23T13:55:01;12.70;;;7.70;;
30233;SDS011;17046;52.074;4.748;2023-01-23T13:57:56;17.50;;;9.50;;
30233;SDS011;17046;52.074;4.748;2023-01-23T14:00:22;15.40;;;8.60;;
30233;SDS011;17046;52.074;4.748;2023-01-23T14:02:53;14.20;;;8.90;;
30233;SDS011;17046;52.074;4.748;2023-01-23T14:06:02;12.97;;;7.93;;
30233;SDS011;17046;52.074;4.748;2023-01-23T14:08:32;16.10;;;8.20;;
30233;SDS011;17046;52.074;4.748;2023-01-23T14:10:58;12.80;;;7.87;;
30233;SDS011;17046;52.074;4.748;2023-01-23T14:13:24;14.37;;;8.30;;
30233;SDS011;17046;52.074;4.748;2023-01-23T14:15:51;17.47;;;9.27;;
30233;SDS011;17046;52.074;4.748;2023-01-23T14:18:55;14.80;;;9.00;;
30233;SDS011;17046;52.074;4.748;2023-01-23T14:21:28;13.63;;;8.27;;
30233;SDS011;17046;52.074;4.748;2023-01-23T14:23:59;14.40;;;8.30;;
30233;SDS011;17046;52.074;4.748;2023-01-23T14:26:29;13.10;;;8.07;;
30233;SDS011;17046;52.074;4.748;2023-01-23T14:29:00;14.33;;;8.47;;
30233;SDS011;17046;52.074;4.748;2023-01-23T14:31:32;15.03;;;9.30;;
30233;SDS011;17046;52.074;4.748;2023-01-23T14:36:27;16.23;;;9.20;;
30233;SDS011;17046;52.074;4.748;2023-01-23T14:38:54;16.37;;;9.40;;
30233;SDS011;17046;52.074;4.748;2023-01-23T14:41:21;14.33;;;9.20;;
30233;SDS011;17046;52.074;4.748;2023-01-23T14:43:50;16.87;;;9.83;;
30233;SDS011;17046;52.074;4.748;2023-01-23T14:46:20;16.97;;;10.03;;
30233;SDS011;17046;52.074;4.748;2023-01-23T14:48:53;20.80;;;11.07;;
30233;SDS011;17046;52.074;4.748;2023-01-23T14:51:21;16.30;;;9.83;;
30233;SDS011;17046;52.074;4.748;2023-01-23T14:53:49;18.67;;;10.33;;
30233;SDS011;17046;52.074;4.748;2023-01-23T14:56:19;18.30;;;10.53;;
30233;SDS011;17046;52.074;4.748;2023-01-23T14:58:47;17.20;;;10.10;;
30233;SDS011;17046;52.074;4.748;2023-01-23T15:01:13;15.50;;;9.83;;
30233;SDS011;17046;52.074;4.748;2023-01-23T15:03:40;16.70;;;9.87;;
30233;SDS011;17046;52.074;4.748;2023-01-23T15:06:19;22.13;;;10.40;;
30233;SDS011;17046;52.074;4.748;2023-01-23T15:08:46;15.57;;;9.30;;
30233;SDS011;17046;52.074;4.748;2023-01-23T15:11:13;17.43;;;9.50;;
30233;SDS011;17046;52.074;4.748;2023-01-23T15:16:16;18.03;;;9.87;;
30233;SDS011;17046;52.074;4.748;2023-01-23T15:21:26;19.07;;;11.07;;
30233;SDS011;17046;52.074;4.748;2023-01-23T15:24:15;17.37;;;10.90;;
30233;SDS011;17046;52.074;4.748;2023-01-23T15:26:55;17.77;;;10.40;;
30233;SDS011;17046;52.074;4.748;2023-01-23T15:29:28;19.20;;;10.83;;
30233;SDS011;17046;52.074;4.748;2023-01-23T15:31:54;19.90;;;10.77;;
30233;SDS011;17046;52.074;4.748;2023-01-23T15:39:37;18.97;;;10.40;;
30233;SDS011;17046;52.074;4.748;2023-01-23T15:44:38;22.20;;;11.73;;
30233;SDS011;17046;52.074;4.748;2023-01-23T15:47:06;20.00;;;11.27;;
30233;SDS011;17046;52.074;4.748;2023-01-23T15:49:32;19.17;;;10.60;;
30233;SDS011;17046;52.074;4.748;2023-01-23T15:52:00;17.70;;;10.00;;
30233;SDS011;17046;52.074;4.748;2023-01-23T15:54:39;16.57;;;9.77;;
30233;SDS011;17046;52.074;4.748;2023-01-23T15:57:05;18.07;;;11.33;;
30233;SDS011;17046;52.074;4.748;2023-01-23T15:59:34;19.33;;;10.23;;
30233;SDS011;17046;52.074;4.748;2023-01-23T16:02:00;19.43;;;10.50;;
30233;SDS011;17046;52.074;4.748;2023-01-23T16:04:26;19.63;;;11.20;;
30233;SDS011;17046;52.074;4.748;2023-01-23T16:06:51;18.67;;;10.70;;
30233;SDS011;17046;52.074;4.748;2023-01-23T16:09:20;19.60;;;11.33;;
30233;SDS011;17046;52.074;4.748;2023-01-23T16:11:48;21.87;;;10.50;;
30233;SDS011;17046;52.074;4.748;2023-01-23T16:14:16;27.27;;;12.17;;
30233;SDS011;17046;52.074;4.748;2023-01-23T16:16:42;22.67;;;12.30;;
30233;SDS011;17046;52.074;4.748;2023-01-23T16:19:08;28.87;;;16.93;;
30233;SDS011;17046;52.074;4.748;2023-01-23T16:21:34;24.63;;;13.13;;
30233;SDS011;17046;52.074;4.748;2023-01-23T16:24:00;20.80;;;11.50;;
30233;SDS011;17046;52.074;4.748;2023-01-23T16:26:26;23.40;;;13.83;;
30233;SDS011;17046;52.074;4.748;2023-01-23T16:28:52;17.47;;;10.87;;
30233;SDS011;17046;52.074;4.748;2023-01-23T16:31:18;18.60;;;10.40;;
30233;SDS011;17046;52.074;4.748;2023-01-23T16:33:44;21.57;;;11.57;;
30233;SDS011;17046;52.074;4.748;2023-01-23T16:36:12;19.53;;;11.30;;
30233;SDS011;17046;52.074;4.748;2023-01-23T16:38:42;16.43;;;10.80;;